createdAt,value
2022-12-20T00:01:27.043Z,8.53
2022-12-20T00:03:55.974Z,6.80
2022-12-20T00:06:24.328Z,6.33
2022-12-20T00:09:01.688Z,5.80
2022-12-20T00:11:29.957Z,5.23
2022-12-20T00:13:57.693Z,6.10
2022-12-20T00:16:27.079Z,7.47
2022-12-20T00:18:56.742Z,6.90
2022-12-20T00:21:24.264Z,8.60
2022-12-20T00:23:52.650Z,10.77
2022-12-20T00:26:23.051Z,6.50
2022-12-20T00:28:49.962Z,5.63
2022-12-20T00:31:18.903Z,7.17
2022-12-20T00:33:47.649Z,9.57
2022-12-20T00:36:14.990Z,12.23
2022-12-20T00:38:44.522Z,11.23
2022-12-20T00:41:20.394Z,14.63
2022-12-20T00:43:47.626Z,8.30
2022-12-20T00:46:18.315Z,6.17
2022-12-20T00:48:45.513Z,4.83
2022-12-20T00:51:15.057Z,6.40
2022-12-20T00:53:42.442Z,4.93
2022-12-20T00:56:10.632Z,6.97
2022-12-20T00:58:39.798Z,9.80
2022-12-20T01:01:17.013Z,10.43
2022-12-20T01:03:43.827Z,7.87
2022-12-20T01:06:12.998Z,8.07
2022-12-20T01:08:40.045Z,5.93
2022-12-20T01:11:10.896Z,5.10
2022-12-20T01:13:39.366Z,5.00
2022-12-20T01:16:19.417Z,7.17
2022-12-20T01:18:46.972Z,8.83
2022-12-20T01:21:16.614Z,11.13
2022-12-20T01:23:43.892Z,11.57
2022-12-20T01:26:13.207Z,4.70
2022-12-20T01:28:42.268Z,4.63
2022-12-20T01:31:11.428Z,4.37
2022-12-20T01:33:38.918Z,4.30
2022-12-20T01:36:15.167Z,5.53
2022-12-20T01:38:42.112Z,9.63
2022-12-20T01:41:16.416Z,9.17
2022-12-20T01:43:46.266Z,8.30
2022-12-20T01:46:13.117Z,4.50
2022-12-20T01:48:43.025Z,4.37
2022-12-20T01:51:10.100Z,4.47
2022-12-20T01:53:37.449Z,4.10
2022-12-20T01:56:07.237Z,3.73
2022-12-20T01:58:37.049Z,3.93
2022-12-20T02:01:03.882Z,4.33
2022-12-20T02:03:32.332Z,5.40
2022-12-20T02:06:14.738Z,4.20
2022-12-20T02:08:41.654Z,4.47
2022-12-20T02:11:49.189Z,4.13
2022-12-20T02:15:07.020Z,5.73
2022-12-20T02:17:44.817Z,3.80
2022-12-20T02:20:35.822Z,4.60
2022-12-20T02:23:26.365Z,5.63
2022-12-20T02:26:34.737Z,5.40
2022-12-20T02:29:26.182Z,4.80
2022-12-20T02:32:17.358Z,4.73
2022-12-20T02:34:44.588Z,3.33
2022-12-20T02:37:11.611Z,4.07
2022-12-20T02:39:42.207Z,3.37
2022-12-20T02:42:22.396Z,3.93
2022-12-20T02:45:15.296Z,3.53
2022-12-20T02:47:54.984Z,4.00
2022-12-20T02:50:28.339Z,3.70
2022-12-20T02:52:55.294Z,3.70
2022-12-20T02:55:31.718Z,3.93
2022-12-20T02:58:18.441Z,3.73
2022-12-20T03:00:48.144Z,3.40
2022-12-20T03:03:24.678Z,3.50
2022-12-20T03:05:55.430Z,3.20
2022-12-20T03:08:24.283Z,3.60
2022-12-20T03:10:52.742Z,3.20
2022-12-20T03:13:20.842Z,3.47
2022-12-20T03:15:54.243Z,3.27
2022-12-20T03:18:21.444Z,3.27
2022-12-20T03:20:48.220Z,3.87
2022-12-20T03:23:14.948Z,3.57
2022-12-20T03:25:41.712Z,4.23
2022-12-20T03:28:11.690Z,3.40
2022-12-20T03:30:38.720Z,3.07
2022-12-20T03:33:05.484Z,2.70
2022-12-20T03:35:32.240Z,2.10
2022-12-20T03:37:59.002Z,2.57
2022-12-20T03:40:25.939Z,2.77
2022-12-20T03:42:53.107Z,2.67
2022-12-20T03:45:19.970Z,2.00
2022-12-20T03:47:46.824Z,3.07
2022-12-20T03:50:13.741Z,3.10
2022-12-20T03:52:40.727Z,3.17
2022-12-20T03:55:08.120Z,3.23
2022-12-20T03:57:41.571Z,2.73
2022-12-20T04:00:22.264Z,3.70
2022-12-20T04:02:54.603Z,3.80
2022-12-20T04:05:22.241Z,4.10
2022-12-20T04:07:49.897Z,4.90
2022-12-20T04:10:16.751Z,3.80
2022-12-20T04:12:43.507Z,2.43
2022-12-20T04:15:12.015Z,2.57
2022-12-20T04:17:40.389Z,3.80
2022-12-20T04:20:19.606Z,3.37
2022-12-20T04:22:53.106Z,2.23
2022-12-20T04:25:22.163Z,2.40
2022-12-20T04:27:48.845Z,2.50
2022-12-20T04:30:15.735Z,2.33
2022-12-20T04:32:42.501Z,3.40
2022-12-20T04:35:10.702Z,3.20
2022-12-20T04:37:41.342Z,2.67
2022-12-20T04:40:09.018Z,2.60
2022-12-20T04:42:46.898Z,2.80
2022-12-20T04:45:15.560Z,2.93
2022-12-20T04:47:42.380Z,2.80
2022-12-20T04:50:11.115Z,2.57
2022-12-20T04:53:00.110Z,2.83
2022-12-20T04:55:27.227Z,2.80
2022-12-20T04:57:54.211Z,2.60
2022-12-20T05:00:21.312Z,2.43
2022-12-20T05:02:54.729Z,38.80
2022-12-20T05:05:24.387Z,10.23
2022-12-20T05:07:54.384Z,2.50
2022-12-20T05:10:21.615Z,2.40
2022-12-20T05:12:49.760Z,2.60
2022-12-20T05:15:26.574Z,2.60
2022-12-20T05:17:59.324Z,2.13
2022-12-20T05:20:32.534Z,2.70
2022-12-20T05:23:19.116Z,2.53
2022-12-20T05:26:10.680Z,2.40
2022-12-20T05:28:38.700Z,3.37
2022-12-20T05:31:06.398Z,3.77
2022-12-20T05:33:35.357Z,4.63
2022-12-20T05:36:03.596Z,3.77
2022-12-20T05:38:30.470Z,3.57
2022-12-20T05:40:57.364Z,2.67
2022-12-20T05:43:24.464Z,3.90
2022-12-20T05:45:53.058Z,2.50
2022-12-20T05:48:29.122Z,3.70
2022-12-20T05:50:55.969Z,5.67
2022-12-20T05:53:28.550Z,5.23
2022-12-20T05:55:59.653Z,5.03
2022-12-20T05:58:30.611Z,4.33
2022-12-20T06:01:05.301Z,3.90
2022-12-20T06:03:37.925Z,5.70
2022-12-20T06:06:13.979Z,7.03
2022-12-20T06:08:41.991Z,7.47
2022-12-20T06:11:13.359Z,6.03
2022-12-20T06:13:50.998Z,4.53
2022-12-20T06:16:20.603Z,6.80
2022-12-20T06:18:47.491Z,5.97
2022-12-20T06:21:14.491Z,4.33
2022-12-20T06:23:41.214Z,3.80
2022-12-20T06:26:11.454Z,5.90
2022-12-20T06:28:46.601Z,9.77
2022-12-20T06:31:14.076Z,8.40
2022-12-20T06:33:48.126Z,8.50
2022-12-20T06:36:16.663Z,8.57
2022-12-20T06:38:43.653Z,7.13
2022-12-20T06:41:10.551Z,4.93
2022-12-20T06:43:37.467Z,3.53
2022-12-20T06:46:04.325Z,3.83
2022-12-20T06:48:31.168Z,3.67
2022-12-20T06:50:58.413Z,4.17
2022-12-20T06:53:27.090Z,4.53
2022-12-20T06:55:54.131Z,5.83
2022-12-20T06:58:21.597Z,7.63
2022-12-20T07:00:49.096Z,8.47
2022-12-20T07:03:16.135Z,7.27
2022-12-20T07:05:42.969Z,8.27
2022-12-20T07:08:09.684Z,8.10
2022-12-20T07:10:37.760Z,5.90
2022-12-20T07:13:04.496Z,5.27
2022-12-20T07:15:31.519Z,4.70
2022-12-20T07:17:59.415Z,4.93
2022-12-20T07:20:26.233Z,8.23
2022-12-20T07:22:53.180Z,9.57
2022-12-20T07:25:20.126Z,6.40
2022-12-20T07:27:49.674Z,5.13
2022-12-20T07:30:17.498Z,4.60
2022-12-20T07:32:44.211Z,4.80
2022-12-20T07:35:12.000Z,6.13
2022-12-20T07:37:38.837Z,6.63
2022-12-20T07:40:07.021Z,6.70
2022-12-20T07:42:39.185Z,6.73
2022-12-20T07:45:08.785Z,7.40
2022-12-20T07:47:35.808Z,6.20
2022-12-20T07:50:03.497Z,5.60
2022-12-20T07:52:34.342Z,5.83
2022-12-20T07:55:03.883Z,7.50
2022-12-20T07:57:38.565Z,6.03
2022-12-20T08:00:07.208Z,7.07
2022-12-20T08:02:45.543Z,7.67
2022-12-20T08:05:12.817Z,8.73
2022-12-20T08:07:41.498Z,7.33
2022-12-20T08:10:11.302Z,7.27
2022-12-20T08:12:38.656Z,7.60
2022-12-20T08:15:06.020Z,14.73
2022-12-20T08:17:32.746Z,9.17
2022-12-20T08:20:00.530Z,5.67
2022-12-20T08:22:27.380Z,8.00
2022-12-20T08:24:54.127Z,5.27
2022-12-20T08:27:20.838Z,5.60
2022-12-20T08:29:47.583Z,6.30
2022-12-20T08:32:14.335Z,6.17
2022-12-20T08:34:41.062Z,5.57
2022-12-20T08:37:14.478Z,4.90
2022-12-20T08:39:41.789Z,11.80
2022-12-20T08:42:08.560Z,18.97
2022-12-20T08:44:35.350Z,11.03
2022-12-20T08:47:02.361Z,22.67
2022-12-20T08:49:29.073Z,7.27
2022-12-20T08:51:56.132Z,4.90
2022-12-20T08:54:22.986Z,8.77
2022-12-20T08:56:49.755Z,5.50
2022-12-20T08:59:16.651Z,4.70
2022-12-20T09:01:43.705Z,5.40
2022-12-20T09:04:11.877Z,6.43
2022-12-20T09:06:38.685Z,6.80
2022-12-20T09:09:06.982Z,20.87
2022-12-20T09:11:34.196Z,15.20
2022-12-20T09:14:01.411Z,21.80
2022-12-20T09:16:32.982Z,12.10
2022-12-20T09:19:05.574Z,11.37
2022-12-20T09:21:34.293Z,9.13
2022-12-20T09:24:01.136Z,6.73
2022-12-20T09:26:27.901Z,8.47
2022-12-20T09:28:54.630Z,5.47
2022-12-20T09:31:24.060Z,4.10
2022-12-20T09:33:54.177Z,3.87
2022-12-20T09:36:24.545Z,5.83
2022-12-20T09:38:51.870Z,4.70
2022-12-20T09:41:40.263Z,3.23
2022-12-20T09:44:22.021Z,4.50
2022-12-20T09:47:01.260Z,4.03
2022-12-20T09:49:36.018Z,4.53
2022-12-20T09:52:27.539Z,4.80
2022-12-20T09:55:00.340Z,5.37
2022-12-20T09:57:50.187Z,6.90
2022-12-20T10:00:21.012Z,4.67
2022-12-20T10:03:04.349Z,4.60
2022-12-20T10:05:42.681Z,5.13
2022-12-20T10:08:28.493Z,7.67
2022-12-20T10:10:59.522Z,8.70
2022-12-20T10:13:37.793Z,7.40
2022-12-20T10:16:28.707Z,9.10
2022-12-20T10:19:26.022Z,7.80
2022-12-20T10:21:52.747Z,6.17
2022-12-20T10:24:33.381Z,5.73
2022-12-20T10:27:20.694Z,5.30
2022-12-20T10:29:50.010Z,3.50
2022-12-20T10:32:20.234Z,3.90
2022-12-20T10:35:09.809Z,3.90
2022-12-20T10:37:36.938Z,2.57
2022-12-20T10:40:07.549Z,2.60
2022-12-20T10:42:40.614Z,2.53
2022-12-20T10:45:38.641Z,3.07
2022-12-20T10:48:24.125Z,4.70
2022-12-20T10:51:19.147Z,6.27
2022-12-20T10:54:01.955Z,3.33
2022-12-20T10:56:38.588Z,3.33
2022-12-20T10:59:17.667Z,2.80
2022-12-20T11:01:49.058Z,2.63
2022-12-20T11:04:30.132Z,2.30
2022-12-20T11:06:58.386Z,2.10
2022-12-20T11:09:27.281Z,1.70
2022-12-20T11:12:17.804Z,1.90
2022-12-20T11:14:46.544Z,2.07
2022-12-20T11:17:13.242Z,2.87
2022-12-20T11:20:00.110Z,1.97
2022-12-20T11:22:34.692Z,2.10
2022-12-20T11:25:11.654Z,2.33
2022-12-20T11:27:49.969Z,2.50
2022-12-20T11:30:21.714Z,6.40
2022-12-20T11:32:57.455Z,4.73
2022-12-20T11:35:45.527Z,5.50
2022-12-20T11:38:42.490Z,6.33
2022-12-20T11:41:49.053Z,7.13
2022-12-20T11:44:25.258Z,5.17
2022-12-20T11:46:55.894Z,5.43
2022-12-20T11:49:31.333Z,6.17
2022-12-20T11:52:06.132Z,4.27
2022-12-20T11:54:48.419Z,3.80
2022-12-20T11:57:48.132Z,3.47
2022-12-20T12:00:19.501Z,3.50
2022-12-20T12:03:10.822Z,3.97
2022-12-20T12:05:43.305Z,3.70
2022-12-20T12:08:19.484Z,2.67
2022-12-20T12:10:57.973Z,2.20
2022-12-20T12:13:28.863Z,2.30
2022-12-20T12:16:18.615Z,2.40
2022-12-20T12:18:45.697Z,1.97
2022-12-20T12:21:23.753Z,2.20
2022-12-20T12:24:20.027Z,2.03
2022-12-20T12:26:46.825Z,2.07
2022-12-20T12:29:16.899Z,1.97
2022-12-20T12:31:58.454Z,2.20
2022-12-20T12:34:43.916Z,1.60
2022-12-20T12:37:34.754Z,1.83
2022-12-20T12:40:18.269Z,2.23
2022-12-20T12:43:23.162Z,1.97
2022-12-20T12:45:55.889Z,2.60
2022-12-20T12:48:39.056Z,19.63
2022-12-20T12:51:06.920Z,16.13
2022-12-20T12:53:38.066Z,7.47
2022-12-20T12:56:43.390Z,6.07
2022-12-20T12:59:33.701Z,2.10
2022-12-20T13:02:06.595Z,2.20
2022-12-20T13:05:16.553Z,1.90
2022-12-20T13:07:46.243Z,2.13
2022-12-20T13:10:18.982Z,2.47
2022-12-20T13:12:51.746Z,2.27
2022-12-20T13:15:21.418Z,1.70
2022-12-20T13:18:11.400Z,2.03
2022-12-20T13:20:38.332Z,2.53
2022-12-20T13:23:08.029Z,2.50
2022-12-20T13:25:43.784Z,2.10
2022-12-20T13:28:16.914Z,1.73
2022-12-20T13:30:45.518Z,2.40
2022-12-20T13:33:24.064Z,2.10
2022-12-20T13:36:02.879Z,1.40
2022-12-20T13:38:48.389Z,2.50
2022-12-20T13:41:36.922Z,2.07
2022-12-20T13:44:46.989Z,1.80
2022-12-20T13:47:25.735Z,1.97
2022-12-20T13:49:52.633Z,2.10
2022-12-20T13:52:40.499Z,1.97
2022-12-20T13:55:18.086Z,2.87
2022-12-20T13:57:46.097Z,2.40
2022-12-20T14:00:22.922Z,2.60
2022-12-20T14:02:49.717Z,2.30
2022-12-20T14:05:31.267Z,3.33
2022-12-20T14:08:05.612Z,3.87
2022-12-20T14:10:33.666Z,3.70
2022-12-20T14:13:00.624Z,4.10
2022-12-20T14:15:28.698Z,5.03
2022-12-20T14:17:55.819Z,9.60
2022-12-20T14:20:30.576Z,10.10
2022-12-20T14:23:06.734Z,7.57
2022-12-20T14:25:57.807Z,11.63
2022-12-20T14:28:44.321Z,10.00
2022-12-20T14:31:35.537Z,7.80
2022-12-20T14:34:11.093Z,7.87
2022-12-20T14:36:39.395Z,8.60
2022-12-20T14:39:30.240Z,15.10
2022-12-20T14:41:58.970Z,11.20
2022-12-20T14:44:28.071Z,34.17
2022-12-20T14:47:01.105Z,10.73
2022-12-20T14:49:37.487Z,14.50
2022-12-20T14:52:17.959Z,10.90
2022-12-20T14:55:11.676Z,6.73
2022-12-20T14:57:50.339Z,4.20
2022-12-20T15:00:25.137Z,17.07
2022-12-20T15:03:01.169Z,5.17
2022-12-20T15:05:35.042Z,6.87
2022-12-20T15:08:23.280Z,10.67
2022-12-20T15:10:59.651Z,11.33
2022-12-20T15:13:33.350Z,7.57
2022-12-20T15:16:21.779Z,4.90
2022-12-20T15:18:50.230Z,2.57
2022-12-20T15:21:32.066Z,3.07
2022-12-20T15:24:02.229Z,3.30
2022-12-20T15:26:31.000Z,11.23
2022-12-20T15:28:57.689Z,3.27
2022-12-20T15:31:33.058Z,3.37
2022-12-20T15:34:02.429Z,4.63
2022-12-20T15:36:29.854Z,5.70
2022-12-20T15:39:14.266Z,4.50
2022-12-20T15:41:49.923Z,2.47
2022-12-20T15:44:19.541Z,7.93
2022-12-20T15:46:46.396Z,2.63
2022-12-20T15:49:18.556Z,3.70
2022-12-20T15:51:46.687Z,4.00
2022-12-20T15:54:22.720Z,2.87
2022-12-20T15:56:49.643Z,2.50
2022-12-20T15:59:48.736Z,2.53
2022-12-20T16:02:03.501Z,2.73
2022-12-20T16:04:30.460Z,3.10
2022-12-20T16:06:57.311Z,4.67
2022-12-20T16:09:25.806Z,3.47
2022-12-20T16:11:52.955Z,4.03
2022-12-20T16:14:21.645Z,3.43
2022-12-20T16:16:51.704Z,2.93
2022-12-20T16:19:19.222Z,2.80
2022-12-20T16:21:52.134Z,3.00
2022-12-20T16:24:20.495Z,3.33
2022-12-20T16:26:48.941Z,3.00
2022-12-20T16:29:15.943Z,4.23
2022-12-20T16:31:43.446Z,3.73
2022-12-20T16:34:15.425Z,3.83
2022-12-20T16:36:42.818Z,4.90
2022-12-20T16:39:12.136Z,4.03
2022-12-20T16:41:41.230Z,4.63
2022-12-20T16:44:14.381Z,4.30
2022-12-20T16:46:41.399Z,3.60
2022-12-20T16:49:14.881Z,3.97
2022-12-20T16:51:49.060Z,3.57
2022-12-20T16:54:22.569Z,6.33
2022-12-20T16:56:55.130Z,6.07
2022-12-20T16:59:23.585Z,5.20
2022-12-20T17:01:53.478Z,5.33
2022-12-20T17:04:21.358Z,3.27
2022-12-20T17:06:48.369Z,7.67
2022-12-20T17:12:04.241Z,6.13
2022-12-20T17:14:31.047Z,5.73
2022-12-20T17:16:57.786Z,10.47
2022-12-20T17:19:24.486Z,8.07
2022-12-20T17:24:35.520Z,7.67
2022-12-20T17:27:02.294Z,7.57
2022-12-20T17:29:28.969Z,7.37
2022-12-20T17:31:55.691Z,6.97
2022-12-20T17:34:28.000Z,6.60
2022-12-20T17:36:56.597Z,7.83
2022-12-20T17:39:24.924Z,8.90
2022-12-20T17:41:52.438Z,8.27
2022-12-20T17:44:20.556Z,7.13
2022-12-20T17:46:47.595Z,7.00
2022-12-20T17:49:15.249Z,8.13
2022-12-20T17:51:42.398Z,6.33
2022-12-20T17:54:18.357Z,4.60
2022-12-20T17:56:45.694Z,6.70
2022-12-20T17:59:14.135Z,6.37
2022-12-20T18:01:42.791Z,4.80
2022-12-20T18:04:12.328Z,9.10
2022-12-20T18:06:41.061Z,8.23
2022-12-20T18:09:16.660Z,7.83
2022-12-20T18:11:43.544Z,7.33
2022-12-20T18:14:10.509Z,6.70
2022-12-20T18:16:41.053Z,5.30
2022-12-20T18:19:14.280Z,5.90
2022-12-20T18:21:41.686Z,4.73
2022-12-20T18:24:11.657Z,4.97
2022-12-20T18:26:38.374Z,26.37
2022-12-20T18:29:05.247Z,14.07
2022-12-20T18:31:34.592Z,15.67
2022-12-20T18:34:02.543Z,7.97
2022-12-20T18:36:37.069Z,5.90
2022-12-20T18:39:06.032Z,6.53
2022-12-20T18:41:33.445Z,16.83
2022-12-20T18:44:02.749Z,13.27
2022-12-20T18:46:29.852Z,16.53
2022-12-20T18:48:58.842Z,9.73
2022-12-20T18:51:28.274Z,29.50
2022-12-20T18:53:57.263Z,24.80
2022-12-20T18:56:31.029Z,16.70
2022-12-20T18:59:03.163Z,10.83
2022-12-20T19:01:36.126Z,15.13
2022-12-20T19:04:05.028Z,12.90
2022-12-20T19:06:32.736Z,9.50
2022-12-20T19:09:00.504Z,10.50
2022-12-20T19:11:27.778Z,9.97
2022-12-20T19:13:55.197Z,11.80
2022-12-20T19:16:24.287Z,10.00
2022-12-20T19:18:51.953Z,7.43
2022-12-20T19:21:24.065Z,8.33
2022-12-20T19:23:53.348Z,53.83
2022-12-20T19:26:22.153Z,52.53
2022-12-20T19:28:48.858Z,41.13
2022-12-20T19:31:21.842Z,27.83
2022-12-20T19:33:50.510Z,29.93
2022-12-20T19:36:25.813Z,17.60
2022-12-20T19:39:00.742Z,25.53
2022-12-20T19:41:30.026Z,22.23
2022-12-20T19:43:57.534Z,12.37
2022-12-20T19:46:29.254Z,13.47
2022-12-20T19:48:57.797Z,11.97
2022-12-20T19:51:25.668Z,12.97
2022-12-20T19:53:53.643Z,9.70
2022-12-20T19:56:23.831Z,9.80
2022-12-20T19:58:50.740Z,10.37
2022-12-20T20:01:18.400Z,9.10
2022-12-20T20:03:45.796Z,9.33
2022-12-20T20:06:13.476Z,10.03
2022-12-20T20:08:40.460Z,9.50
2022-12-20T20:11:09.709Z,9.33
2022-12-20T20:13:38.240Z,18.50
2022-12-20T20:16:05.830Z,40.00
2022-12-20T20:18:37.930Z,16.57
2022-12-20T20:21:12.186Z,39.13
2022-12-20T20:23:39.615Z,38.23
2022-12-20T20:26:10.021Z,20.03
2022-12-20T20:28:45.121Z,19.80
2022-12-20T20:31:17.674Z,12.27
2022-12-20T20:33:45.593Z,9.83
2022-12-20T20:36:17.633Z,10.47
2022-12-20T20:38:45.538Z,8.90
2022-12-20T20:41:12.954Z,9.43
2022-12-20T20:43:40.288Z,10.17
2022-12-20T20:46:11.270Z,10.67
2022-12-20T20:48:39.024Z,13.10
2022-12-20T20:51:06.559Z,10.17
2022-12-20T20:53:34.435Z,10.97
2022-12-20T20:56:05.631Z,12.50
2022-12-20T20:58:32.929Z,11.57
2022-12-20T21:01:01.978Z,11.83
2022-12-20T21:03:30.497Z,10.37
2022-12-20T21:06:35.033Z,12.30
2022-12-20T21:08:44.605Z,14.90
2022-12-20T21:11:11.406Z,10.70
2022-12-20T21:13:38.203Z,9.43
2022-12-20T21:16:10.048Z,8.10
2022-12-20T21:18:36.835Z,4.87
2022-12-20T21:21:11.394Z,5.83
2022-12-20T21:23:39.382Z,4.77
2022-12-20T21:26:07.438Z,4.23
2022-12-20T21:28:34.655Z,3.93
2022-12-20T21:31:02.701Z,2.90
2022-12-20T21:33:29.589Z,2.73
2022-12-20T21:36:05.225Z,3.10
2022-12-20T21:38:32.598Z,3.00
2022-12-20T21:41:18.408Z,3.30
2022-12-20T21:43:45.136Z,4.23
2022-12-20T21:46:12.132Z,3.30
2022-12-20T21:48:40.368Z,3.63
2022-12-20T21:51:12.270Z,2.73
2022-12-20T21:53:44.425Z,2.80
2022-12-20T21:56:11.716Z,2.77
2022-12-20T21:58:38.572Z,2.60
2022-12-20T22:01:06.166Z,2.70
2022-12-20T22:03:33.052Z,2.93
2022-12-20T22:05:59.809Z,2.27
2022-12-20T22:08:28.057Z,2.57
2022-12-20T22:11:00.114Z,2.73
2022-12-20T22:13:28.286Z,2.90
2022-12-20T22:15:55.217Z,2.57
2022-12-20T22:18:22.835Z,2.13
2022-12-20T22:20:49.570Z,2.40
2022-12-20T22:23:16.782Z,2.40
2022-12-20T22:25:43.753Z,2.23
2022-12-20T22:28:10.512Z,2.13
2022-12-20T22:30:41.645Z,2.57
2022-12-20T22:33:08.991Z,2.00
2022-12-20T22:35:36.009Z,2.03
2022-12-20T22:38:02.936Z,2.30
2022-12-20T22:40:29.698Z,2.50
2022-12-20T22:42:56.368Z,2.90
2022-12-20T22:45:23.494Z,2.27
2022-12-20T22:47:50.771Z,2.70
2022-12-20T22:50:17.633Z,2.47
2022-12-20T22:52:44.675Z,2.10
2022-12-20T22:55:11.364Z,2.40
2022-12-20T22:57:38.066Z,2.50
2022-12-20T23:00:06.423Z,2.50
2022-12-20T23:02:33.372Z,2.27
2022-12-20T23:05:00.349Z,2.00
2022-12-20T23:07:27.018Z,2.30
2022-12-20T23:09:53.649Z,2.50
2022-12-20T23:12:38.813Z,2.00
2022-12-20T23:15:24.274Z,2.50
2022-12-20T23:17:50.952Z,2.10
2022-12-20T23:20:36.235Z,1.73
2022-12-20T23:23:02.897Z,1.83
2022-12-20T23:25:29.538Z,1.80
2022-12-20T23:27:56.195Z,2.73
2022-12-20T23:30:24.551Z,2.50
2022-12-20T23:32:51.474Z,1.87
2022-12-20T23:35:19.529Z,1.97
2022-12-20T23:37:46.828Z,2.03
2022-12-20T23:40:15.477Z,1.43
2022-12-20T23:42:42.546Z,1.80
2022-12-20T23:45:10.424Z,2.07
2022-12-20T23:47:37.097Z,1.70
2022-12-20T23:50:04.541Z,1.63
2022-12-20T23:52:31.202Z,1.60
2022-12-20T23:54:57.831Z,2.03
2022-12-20T23:57:24.491Z,1.67
2022-12-20T23:59:51.118Z,1.60
